sensor_id;sensor_type;location;lat;lon;timestamp;P1;durP1;ratioP1;P2;durP2;ratioP2
19519;SDS011;9904;52.246;20.898;2022-08-19T00:00:57;19.37;;;8.80;;
19519;SDS011;9904;52.246;20.898;2022-08-19T00:03:24;18.03;;;8.97;;
19519;SDS011;9904;52.246;20.898;2022-08-19T00:05:51;19.10;;;9.30;;
19519;SDS011;9904;52.246;20.898;2022-08-19T00:08:18;14.60;;;9.33;;
19519;SDS011;9904;52.246;20.898;2022-08-19T00:10:44;18.13;;;9.70;;
19519;SDS011;9904;52.246;20.898;2022-08-19T00:13:12;17.17;;;9.53;;
19519;SDS011;9904;52.246;20.898;2022-08-19T00:15:38;19.27;;;9.80;;
19519;SDS011;9904;52.246;20.898;2022-08-19T00:18:05;17.07;;;9.20;;
19519;SDS011;9904;52.246;20.898;2022-08-19T00:20:31;22.00;;;9.47;;
19519;SDS011;9904;52.246;20.898;2022-08-19T00:22:58;24.33;;;9.97;;
19519;SDS011;9904;52.246;20.898;2022-08-19T00:25:25;20.17;;;10.77;;
19519;SDS011;9904;52.246;20.898;2022-08-19T00:27:56;18.73;;;9.47;;
19519;SDS011;9904;52.246;20.898;2022-08-19T00:30:25;18.20;;;9.90;;
19519;SDS011;9904;52.246;20.898;2022-08-19T00:32:53;16.17;;;9.63;;
19519;SDS011;9904;52.246;20.898;2022-08-19T00:35:23;20.90;;;9.67;;
19519;SDS011;9904;52.246;20.898;2022-08-19T00:37:50;19.87;;;10.67;;
19519;SDS011;9904;52.246;20.898;2022-08-19T00:40:16;19.33;;;10.50;;
19519;SDS011;9904;52.246;20.898;2022-08-19T00:42:44;16.10;;;10.13;;
19519;SDS011;9904;52.246;20.898;2022-08-19T00:45:16;16.93;;;8.87;;
19519;SDS011;9904;52.246;20.898;2022-08-19T00:47:44;15.07;;;9.97;;
19519;SDS011;9904;52.246;20.898;2022-08-19T00:50:13;20.57;;;9.90;;
19519;SDS011;9904;52.246;20.898;2022-08-19T00:52:42;23.67;;;9.87;;
19519;SDS011;9904;52.246;20.898;2022-08-19T00:55:15;20.83;;;9.43;;
19519;SDS011;9904;52.246;20.898;2022-08-19T00:57:48;19.47;;;9.30;;
19519;SDS011;9904;52.246;20.898;2022-08-19T01:00:23;15.13;;;9.60;;
19519;SDS011;9904;52.246;20.898;2022-08-19T01:02:50;16.07;;;9.20;;
19519;SDS011;9904;52.246;20.898;2022-08-19T01:05:23;19.87;;;10.07;;
19519;SDS011;9904;52.246;20.898;2022-08-19T01:07:51;18.87;;;9.80;;
19519;SDS011;9904;52.246;20.898;2022-08-19T01:10:19;20.43;;;9.67;;
19519;SDS011;9904;52.246;20.898;2022-08-19T01:12:47;16.03;;;9.47;;
19519;SDS011;9904;52.246;20.898;2022-08-19T01:15:16;17.07;;;10.07;;
19519;SDS011;9904;52.246;20.898;2022-08-19T01:17:45;18.43;;;9.73;;
19519;SDS011;9904;52.246;20.898;2022-08-19T01:20:13;18.63;;;9.90;;
19519;SDS011;9904;52.246;20.898;2022-08-19T01:25:14;16.63;;;10.00;;
19519;SDS011;9904;52.246;20.898;2022-08-19T01:27:43;17.47;;;11.13;;
19519;SDS011;9904;52.246;20.898;2022-08-19T01:30:16;20.43;;;9.53;;
19519;SDS011;9904;52.246;20.898;2022-08-19T01:32:45;15.30;;;9.80;;
19519;SDS011;9904;52.246;20.898;2022-08-19T01:35:12;15.80;;;9.07;;
19519;SDS011;9904;52.246;20.898;2022-08-19T01:37:50;17.00;;;10.37;;
19519;SDS011;9904;52.246;20.898;2022-08-19T01:40:19;23.77;;;9.47;;
19519;SDS011;9904;52.246;20.898;2022-08-19T01:42:50;17.10;;;9.90;;
19519;SDS011;9904;52.246;20.898;2022-08-19T01:45:17;21.93;;;10.53;;
19519;SDS011;9904;52.246;20.898;2022-08-19T01:47:44;24.67;;;10.40;;
19519;SDS011;9904;52.246;20.898;2022-08-19T01:50:27;18.33;;;10.53;;
19519;SDS011;9904;52.246;20.898;2022-08-19T01:52:55;17.40;;;10.47;;
19519;SDS011;9904;52.246;20.898;2022-08-19T01:55:33;20.17;;;10.47;;
19519;SDS011;9904;52.246;20.898;2022-08-19T01:58:08;18.00;;;11.13;;
19519;SDS011;9904;52.246;20.898;2022-08-19T02:00:37;24.87;;;11.17;;
19519;SDS011;9904;52.246;20.898;2022-08-19T02:03:05;23.67;;;10.67;;
19519;SDS011;9904;52.246;20.898;2022-08-19T02:05:32;21.13;;;11.27;;
19519;SDS011;9904;52.246;20.898;2022-08-19T02:07:59;18.53;;;11.47;;
19519;SDS011;9904;52.246;20.898;2022-08-19T02:10:25;22.40;;;11.30;;
19519;SDS011;9904;52.246;20.898;2022-08-19T02:12:52;18.63;;;10.87;;
19519;SDS011;9904;52.246;20.898;2022-08-19T02:15:19;19.23;;;10.60;;
19519;SDS011;9904;52.246;20.898;2022-08-19T02:17:46;27.47;;;11.53;;
19519;SDS011;9904;52.246;20.898;2022-08-19T02:20:13;20.20;;;10.80;;
19519;SDS011;9904;52.246;20.898;2022-08-19T02:22:41;18.63;;;10.13;;
19519;SDS011;9904;52.246;20.898;2022-08-19T02:25:11;20.57;;;12.10;;
19519;SDS011;9904;52.246;20.898;2022-08-19T02:27:40;21.37;;;11.90;;
19519;SDS011;9904;52.246;20.898;2022-08-19T02:30:08;22.10;;;11.20;;
19519;SDS011;9904;52.246;20.898;2022-08-19T02:32:39;17.03;;;10.93;;
19519;SDS011;9904;52.246;20.898;2022-08-19T02:35:10;19.00;;;10.73;;
19519;SDS011;9904;52.246;20.898;2022-08-19T02:37:38;17.43;;;10.90;;
19519;SDS011;9904;52.246;20.898;2022-08-19T02:40:23;18.50;;;11.57;;
19519;SDS011;9904;52.246;20.898;2022-08-19T02:42:50;17.90;;;11.30;;
19519;SDS011;9904;52.246;20.898;2022-08-19T02:45:17;21.97;;;11.73;;
19519;SDS011;9904;52.246;20.898;2022-08-19T02:47:43;20.00;;;12.03;;
19519;SDS011;9904;52.246;20.898;2022-08-19T02:50:10;21.07;;;11.93;;
19519;SDS011;9904;52.246;20.898;2022-08-19T02:52:36;21.50;;;12.50;;
19519;SDS011;9904;52.246;20.898;2022-08-19T02:55:03;23.23;;;12.17;;
19519;SDS011;9904;52.246;20.898;2022-08-19T02:57:31;21.43;;;11.27;;
19519;SDS011;9904;52.246;20.898;2022-08-19T02:59:58;24.93;;;12.13;;
19519;SDS011;9904;52.246;20.898;2022-08-19T03:02:24;20.77;;;11.43;;
19519;SDS011;9904;52.246;20.898;2022-08-19T03:04:51;20.43;;;11.67;;
19519;SDS011;9904;52.246;20.898;2022-08-19T03:07:18;19.20;;;11.67;;
19519;SDS011;9904;52.246;20.898;2022-08-19T03:09:44;24.13;;;11.43;;
19519;SDS011;9904;52.246;20.898;2022-08-19T03:12:11;23.47;;;11.57;;
19519;SDS011;9904;52.246;20.898;2022-08-19T03:14:38;19.67;;;11.83;;
19519;SDS011;9904;52.246;20.898;2022-08-19T03:17:04;20.47;;;11.60;;
19519;SDS011;9904;52.246;20.898;2022-08-19T03:19:31;21.70;;;11.33;;
19519;SDS011;9904;52.246;20.898;2022-08-19T03:21:57;23.67;;;11.97;;
19519;SDS011;9904;52.246;20.898;2022-08-19T03:24:24;25.93;;;12.03;;
19519;SDS011;9904;52.246;20.898;2022-08-19T03:26:52;20.53;;;10.83;;
19519;SDS011;9904;52.246;20.898;2022-08-19T03:29:21;22.00;;;12.17;;
19519;SDS011;9904;52.246;20.898;2022-08-19T03:31:58;17.53;;;11.60;;
19519;SDS011;9904;52.246;20.898;2022-08-19T03:34:28;22.93;;;12.40;;
19519;SDS011;9904;52.246;20.898;2022-08-19T03:36:58;16.23;;;11.53;;
19519;SDS011;9904;52.246;20.898;2022-08-19T03:39:26;19.60;;;11.17;;
19519;SDS011;9904;52.246;20.898;2022-08-19T03:41:53;22.70;;;11.50;;
19519;SDS011;9904;52.246;20.898;2022-08-19T03:44:44;26.43;;;11.33;;
19519;SDS011;9904;52.246;20.898;2022-08-19T03:47:11;21.80;;;11.30;;
19519;SDS011;9904;52.246;20.898;2022-08-19T03:49:42;21.07;;;11.87;;
19519;SDS011;9904;52.246;20.898;2022-08-19T03:52:09;21.33;;;11.90;;
19519;SDS011;9904;52.246;20.898;2022-08-19T03:54:36;19.40;;;11.30;;
19519;SDS011;9904;52.246;20.898;2022-08-19T03:57:04;24.60;;;11.13;;
19519;SDS011;9904;52.246;20.898;2022-08-19T03:59:32;23.27;;;11.43;;
19519;SDS011;9904;52.246;20.898;2022-08-19T04:02:04;22.33;;;11.30;;
19519;SDS011;9904;52.246;20.898;2022-08-19T04:04:35;18.40;;;12.03;;
19519;SDS011;9904;52.246;20.898;2022-08-19T04:07:03;24.87;;;11.77;;
19519;SDS011;9904;52.246;20.898;2022-08-19T04:09:31;20.27;;;11.73;;
19519;SDS011;9904;52.246;20.898;2022-08-19T04:11:59;23.37;;;11.80;;
19519;SDS011;9904;52.246;20.898;2022-08-19T04:14:27;22.37;;;11.73;;
19519;SDS011;9904;52.246;20.898;2022-08-19T04:17:00;22.17;;;11.73;;
19519;SDS011;9904;52.246;20.898;2022-08-19T04:19:29;21.13;;;12.27;;
19519;SDS011;9904;52.246;20.898;2022-08-19T04:21:57;26.17;;;12.70;;
19519;SDS011;9904;52.246;20.898;2022-08-19T04:24:24;30.17;;;12.20;;
19519;SDS011;9904;52.246;20.898;2022-08-19T04:26:51;20.63;;;11.53;;
19519;SDS011;9904;52.246;20.898;2022-08-19T04:29:19;19.60;;;11.90;;
19519;SDS011;9904;52.246;20.898;2022-08-19T04:31:48;26.80;;;11.70;;
19519;SDS011;9904;52.246;20.898;2022-08-19T04:34:15;18.20;;;11.53;;
19519;SDS011;9904;52.246;20.898;2022-08-19T04:36:43;17.90;;;11.47;;
19519;SDS011;9904;52.246;20.898;2022-08-19T04:39:12;17.47;;;10.60;;
19519;SDS011;9904;52.246;20.898;2022-08-19T04:41:41;17.87;;;10.93;;
19519;SDS011;9904;52.246;20.898;2022-08-19T04:44:26;19.60;;;11.17;;
19519;SDS011;9904;52.246;20.898;2022-08-19T04:46:53;21.23;;;11.30;;
19519;SDS011;9904;52.246;20.898;2022-08-19T04:49:20;20.13;;;11.43;;
19519;SDS011;9904;52.246;20.898;2022-08-19T04:51:51;19.47;;;11.37;;
19519;SDS011;9904;52.246;20.898;2022-08-19T04:54:21;25.17;;;11.77;;
19519;SDS011;9904;52.246;20.898;2022-08-19T04:57:04;22.20;;;11.83;;
19519;SDS011;9904;52.246;20.898;2022-08-19T04:59:34;17.27;;;11.27;;
19519;SDS011;9904;52.246;20.898;2022-08-19T05:02:01;23.07;;;12.13;;
19519;SDS011;9904;52.246;20.898;2022-08-19T05:04:29;20.97;;;11.20;;
19519;SDS011;9904;52.246;20.898;2022-08-19T05:06:57;21.27;;;11.00;;
19519;SDS011;9904;52.246;20.898;2022-08-19T05:09:26;19.67;;;10.87;;
19519;SDS011;9904;52.246;20.898;2022-08-19T05:12:13;22.73;;;11.47;;
19519;SDS011;9904;52.246;20.898;2022-08-19T05:14:40;17.43;;;10.90;;
19519;SDS011;9904;52.246;20.898;2022-08-19T05:17:07;20.30;;;10.93;;
19519;SDS011;9904;52.246;20.898;2022-08-19T05:19:52;20.87;;;10.50;;
19519;SDS011;9904;52.246;20.898;2022-08-19T05:22:37;19.27;;;11.10;;
19519;SDS011;9904;52.246;20.898;2022-08-19T05:25:05;26.10;;;11.67;;
19519;SDS011;9904;52.246;20.898;2022-08-19T05:27:39;24.83;;;10.97;;
19519;SDS011;9904;52.246;20.898;2022-08-19T05:30:06;21.83;;;10.77;;
19519;SDS011;9904;52.246;20.898;2022-08-19T05:32:34;24.80;;;11.47;;
19519;SDS011;9904;52.246;20.898;2022-08-19T05:35:01;22.90;;;11.47;;
19519;SDS011;9904;52.246;20.898;2022-08-19T05:37:27;21.80;;;10.60;;
19519;SDS011;9904;52.246;20.898;2022-08-19T05:39:54;24.40;;;10.50;;
19519;SDS011;9904;52.246;20.898;2022-08-19T05:42:22;19.90;;;9.90;;
19519;SDS011;9904;52.246;20.898;2022-08-19T05:44:49;17.73;;;10.17;;
19519;SDS011;9904;52.246;20.898;2022-08-19T05:47:17;18.97;;;10.30;;
19519;SDS011;9904;52.246;20.898;2022-08-19T05:49:46;20.83;;;10.27;;
19519;SDS011;9904;52.246;20.898;2022-08-19T05:52:14;19.37;;;10.37;;
19519;SDS011;9904;52.246;20.898;2022-08-19T05:54:44;22.63;;;10.00;;
19519;SDS011;9904;52.246;20.898;2022-08-19T05:57:17;28.23;;;9.93;;
19519;SDS011;9904;52.246;20.898;2022-08-19T05:59:47;16.00;;;9.37;;
19519;SDS011;9904;52.246;20.898;2022-08-19T06:02:18;14.67;;;9.00;;
19519;SDS011;9904;52.246;20.898;2022-08-19T06:04:45;16.80;;;9.13;;
19519;SDS011;9904;52.246;20.898;2022-08-19T06:07:12;16.13;;;10.10;;
19519;SDS011;9904;52.246;20.898;2022-08-19T06:09:39;27.70;;;9.90;;
19519;SDS011;9904;52.246;20.898;2022-08-19T06:12:09;20.90;;;9.20;;
19519;SDS011;9904;52.246;20.898;2022-08-19T06:14:35;15.47;;;8.77;;
19519;SDS011;9904;52.246;20.898;2022-08-19T06:17:07;23.50;;;8.90;;
19519;SDS011;9904;52.246;20.898;2022-08-19T06:19:34;20.50;;;9.53;;
19519;SDS011;9904;52.246;20.898;2022-08-19T06:22:06;17.60;;;8.47;;
19519;SDS011;9904;52.246;20.898;2022-08-19T06:24:33;17.63;;;8.87;;
19519;SDS011;9904;52.246;20.898;2022-08-19T06:27:02;16.50;;;7.87;;
19519;SDS011;9904;52.246;20.898;2022-08-19T06:29:31;16.23;;;7.90;;
19519;SDS011;9904;52.246;20.898;2022-08-19T06:31:59;18.10;;;8.33;;
19519;SDS011;9904;52.246;20.898;2022-08-19T06:34:27;17.90;;;8.70;;
19519;SDS011;9904;52.246;20.898;2022-08-19T06:36:56;19.23;;;7.37;;
19519;SDS011;9904;52.246;20.898;2022-08-19T06:39:29;20.97;;;7.50;;
19519;SDS011;9904;52.246;20.898;2022-08-19T06:41:58;18.33;;;7.90;;
19519;SDS011;9904;52.246;20.898;2022-08-19T06:44:27;22.95;;;7.22;;
19519;SDS011;9904;52.246;20.898;2022-08-19T06:47:10;12.23;;;6.97;;
19519;SDS011;9904;52.246;20.898;2022-08-19T06:49:48;23.80;;;7.87;;
19519;SDS011;9904;52.246;20.898;2022-08-19T06:52:15;14.70;;;6.97;;
19519;SDS011;9904;52.246;20.898;2022-08-19T06:54:42;17.33;;;8.43;;
19519;SDS011;9904;52.246;20.898;2022-08-19T06:57:23;16.30;;;8.45;;
19519;SDS011;9904;52.246;20.898;2022-08-19T06:59:50;17.73;;;7.97;;
19519;SDS011;9904;52.246;20.898;2022-08-19T07:02:17;18.20;;;8.30;;
19519;SDS011;9904;52.246;20.898;2022-08-19T07:04:43;15.32;;;8.05;;
19519;SDS011;9904;52.246;20.898;2022-08-19T07:07:13;19.60;;;8.82;;
19519;SDS011;9904;52.246;20.898;2022-08-19T07:09:47;17.65;;;8.60;;
19519;SDS011;9904;52.246;20.898;2022-08-19T07:12:25;16.50;;;8.63;;
19519;SDS011;9904;52.246;20.898;2022-08-19T07:14:55;18.40;;;7.85;;
19519;SDS011;9904;52.246;20.898;2022-08-19T07:17:22;20.80;;;7.95;;
19519;SDS011;9904;52.246;20.898;2022-08-19T07:19:49;17.45;;;7.72;;
19519;SDS011;9904;52.246;20.898;2022-08-19T07:22:19;18.15;;;8.10;;
19519;SDS011;9904;52.246;20.898;2022-08-19T07:24:49;13.43;;;7.57;;
19519;SDS011;9904;52.246;20.898;2022-08-19T07:27:16;18.30;;;7.57;;
19519;SDS011;9904;52.246;20.898;2022-08-19T07:29:50;22.63;;;7.93;;
19519;SDS011;9904;52.246;20.898;2022-08-19T07:32:23;14.20;;;7.40;;
19519;SDS011;9904;52.246;20.898;2022-08-19T07:34:52;21.70;;;7.15;;
19519;SDS011;9904;52.246;20.898;2022-08-19T07:37:19;15.73;;;7.25;;
19519;SDS011;9904;52.246;20.898;2022-08-19T07:39:46;15.90;;;7.43;;
19519;SDS011;9904;52.246;20.898;2022-08-19T07:42:13;19.08;;;7.45;;
19519;SDS011;9904;52.246;20.898;2022-08-19T07:44:40;15.98;;;7.32;;
19519;SDS011;9904;52.246;20.898;2022-08-19T07:47:16;24.10;;;7.03;;
19519;SDS011;9904;52.246;20.898;2022-08-19T07:50:04;13.40;;;6.68;;
19519;SDS011;9904;52.246;20.898;2022-08-19T07:52:33;15.95;;;7.05;;
19519;SDS011;9904;52.246;20.898;2022-08-19T07:55:00;20.50;;;7.40;;
19519;SDS011;9904;52.246;20.898;2022-08-19T07:57:29;21.70;;;7.65;;
19519;SDS011;9904;52.246;20.898;2022-08-19T07:59:57;11.57;;;6.70;;
19519;SDS011;9904;52.246;20.898;2022-08-19T08:02:23;23.90;;;7.47;;
19519;SDS011;9904;52.246;20.898;2022-08-19T08:04:50;13.77;;;7.22;;
19519;SDS011;9904;52.246;20.898;2022-08-19T08:07:35;19.00;;;7.72;;
19519;SDS011;9904;52.246;20.898;2022-08-19T08:10:20;17.80;;;8.05;;
19519;SDS011;9904;52.246;20.898;2022-08-19T08:12:49;16.08;;;6.70;;
19519;SDS011;9904;52.246;20.898;2022-08-19T08:15:36;18.52;;;7.30;;
19519;SDS011;9904;52.246;20.898;2022-08-19T08:18:09;17.23;;;7.50;;
19519;SDS011;9904;52.246;20.898;2022-08-19T08:20:37;16.60;;;6.85;;
19519;SDS011;9904;52.246;20.898;2022-08-19T08:23:03;23.58;;;7.57;;
19519;SDS011;9904;52.246;20.898;2022-08-19T08:25:48;16.48;;;7.70;;
19519;SDS011;9904;52.246;20.898;2022-08-19T08:28:15;19.52;;;7.47;;
19519;SDS011;9904;52.246;20.898;2022-08-19T08:30:43;17.67;;;6.97;;
19519;SDS011;9904;52.246;20.898;2022-08-19T08:33:16;19.40;;;7.63;;
19519;SDS011;9904;52.246;20.898;2022-08-19T08:36:06;12.27;;;7.47;;
19519;SDS011;9904;52.246;20.898;2022-08-19T08:38:33;16.52;;;7.75;;
19519;SDS011;9904;52.246;20.898;2022-08-19T08:41:14;13.00;;;7.57;;
19519;SDS011;9904;52.246;20.898;2022-08-19T08:43:54;15.10;;;7.80;;
19519;SDS011;9904;52.246;20.898;2022-08-19T08:46:30;14.02;;;8.93;;
19519;SDS011;9904;52.246;20.898;2022-08-19T08:51:37;18.50;;;7.70;;
19519;SDS011;9904;52.246;20.898;2022-08-19T08:54:12;17.58;;;8.02;;
19519;SDS011;9904;52.246;20.898;2022-08-19T08:56:43;15.60;;;7.75;;
19519;SDS011;9904;52.246;20.898;2022-08-19T08:59:21;17.37;;;8.03;;
19519;SDS011;9904;52.246;20.898;2022-08-19T09:02:00;15.95;;;8.50;;
19519;SDS011;9904;52.246;20.898;2022-08-19T09:04:27;15.93;;;8.10;;
19519;SDS011;9904;52.246;20.898;2022-08-19T09:09:45;22.05;;;8.73;;
19519;SDS011;9904;52.246;20.898;2022-08-19T09:12:31;22.70;;;9.20;;
19519;SDS011;9904;52.246;20.898;2022-08-19T09:15:12;17.23;;;7.68;;
19519;SDS011;9904;52.246;20.898;2022-08-19T09:17:39;14.43;;;8.10;;
19519;SDS011;9904;52.246;20.898;2022-08-19T09:20:21;19.95;;;8.25;;
19519;SDS011;9904;52.246;20.898;2022-08-19T09:22:51;19.95;;;7.55;;
19519;SDS011;9904;52.246;20.898;2022-08-19T09:25:19;26.20;;;7.70;;
19519;SDS011;9904;52.246;20.898;2022-08-19T09:27:53;16.25;;;7.65;;
19519;SDS011;9904;52.246;20.898;2022-08-19T09:30:29;23.33;;;7.65;;
19519;SDS011;9904;52.246;20.898;2022-08-19T09:33:07;14.38;;;7.72;;
19519;SDS011;9904;52.246;20.898;2022-08-19T09:35:34;15.80;;;7.00;;
19519;SDS011;9904;52.246;20.898;2022-08-19T09:38:18;16.20;;;7.10;;
19519;SDS011;9904;52.246;20.898;2022-08-19T09:40:44;15.07;;;6.43;;
19519;SDS011;9904;52.246;20.898;2022-08-19T09:43:11;15.38;;;7.50;;
19519;SDS011;9904;52.246;20.898;2022-08-19T09:45:39;16.92;;;7.25;;
19519;SDS011;9904;52.246;20.898;2022-08-19T09:48:06;20.42;;;7.32;;
19519;SDS011;9904;52.246;20.898;2022-08-19T09:50:34;15.63;;;7.28;;
19519;SDS011;9904;52.246;20.898;2022-08-19T09:53:17;16.35;;;7.38;;
19519;SDS011;9904;52.246;20.898;2022-08-19T09:55:43;14.80;;;6.63;;
19519;SDS011;9904;52.246;20.898;2022-08-19T09:58:11;18.98;;;7.00;;
19519;SDS011;9904;52.246;20.898;2022-08-19T10:00:38;17.13;;;7.15;;
19519;SDS011;9904;52.246;20.898;2022-08-19T10:03:04;16.25;;;7.05;;
19519;SDS011;9904;52.246;20.898;2022-08-19T10:05:33;19.58;;;7.05;;
19519;SDS011;9904;52.246;20.898;2022-08-19T10:08:21;10.75;;;6.45;;
19519;SDS011;9904;52.246;20.898;2022-08-19T10:10:52;19.10;;;7.50;;
19519;SDS011;9904;52.246;20.898;2022-08-19T10:13:20;12.38;;;6.47;;
19519;SDS011;9904;52.246;20.898;2022-08-19T10:15:49;18.63;;;7.65;;
19519;SDS011;9904;52.246;20.898;2022-08-19T10:18:17;14.77;;;7.20;;
19519;SDS011;9904;52.246;20.898;2022-08-19T10:20:48;12.38;;;7.07;;
19519;SDS011;9904;52.246;20.898;2022-08-19T10:23:18;15.40;;;7.00;;
19519;SDS011;9904;52.246;20.898;2022-08-19T10:25:47;12.30;;;6.35;;
19519;SDS011;9904;52.246;20.898;2022-08-19T10:28:14;9.98;;;6.25;;
19519;SDS011;9904;52.246;20.898;2022-08-19T10:30:44;14.18;;;6.63;;
19519;SDS011;9904;52.246;20.898;2022-08-19T10:33:12;18.27;;;6.57;;
19519;SDS011;9904;52.246;20.898;2022-08-19T10:35:40;10.70;;;6.40;;
19519;SDS011;9904;52.246;20.898;2022-08-19T10:38:22;19.05;;;6.32;;
19519;SDS011;9904;52.246;20.898;2022-08-19T10:40:57;21.92;;;7.07;;
19519;SDS011;9904;52.246;20.898;2022-08-19T10:43:24;15.27;;;6.78;;
19519;SDS011;9904;52.246;20.898;2022-08-19T10:45:52;22.65;;;6.82;;
19519;SDS011;9904;52.246;20.898;2022-08-19T10:48:23;14.73;;;7.05;;
19519;SDS011;9904;52.246;20.898;2022-08-19T10:50:50;17.08;;;6.22;;
19519;SDS011;9904;52.246;20.898;2022-08-19T10:53:48;18.87;;;6.53;;
19519;SDS011;9904;52.246;20.898;2022-08-19T10:56:15;15.57;;;6.97;;
19519;SDS011;9904;52.246;20.898;2022-08-19T10:59:00;15.13;;;6.30;;
19519;SDS011;9904;52.246;20.898;2022-08-19T11:01:29;16.23;;;6.78;;
19519;SDS011;9904;52.246;20.898;2022-08-19T11:04:00;18.38;;;7.15;;
19519;SDS011;9904;52.246;20.898;2022-08-19T11:06:27;16.63;;;7.13;;
19519;SDS011;9904;52.246;20.898;2022-08-19T11:08:54;12.60;;;6.68;;
19519;SDS011;9904;52.246;20.898;2022-08-19T11:11:21;12.40;;;6.15;;
19519;SDS011;9904;52.246;20.898;2022-08-19T11:13:48;16.08;;;7.03;;
19519;SDS011;9904;52.246;20.898;2022-08-19T11:16:17;18.65;;;6.80;;
19519;SDS011;9904;52.246;20.898;2022-08-19T11:18:49;17.77;;;6.70;;
19519;SDS011;9904;52.246;20.898;2022-08-19T11:21:18;13.73;;;6.68;;
19519;SDS011;9904;52.246;20.898;2022-08-19T11:23:48;15.85;;;6.60;;
19519;SDS011;9904;52.246;20.898;2022-08-19T11:26:16;20.15;;;6.95;;
19519;SDS011;9904;52.246;20.898;2022-08-19T11:28:43;15.18;;;7.10;;
19519;SDS011;9904;52.246;20.898;2022-08-19T11:31:11;13.43;;;6.78;;
19519;SDS011;9904;52.246;20.898;2022-08-19T11:33:42;12.02;;;7.63;;
19519;SDS011;9904;52.246;20.898;2022-08-19T11:36:13;14.73;;;6.88;;
19519;SDS011;9904;52.246;20.898;2022-08-19T11:38:40;15.65;;;6.43;;
19519;SDS011;9904;52.246;20.898;2022-08-19T11:41:07;14.52;;;7.43;;
19519;SDS011;9904;52.246;20.898;2022-08-19T11:43:34;17.75;;;7.35;;
19519;SDS011;9904;52.246;20.898;2022-08-19T11:46:06;21.25;;;7.30;;
19519;SDS011;9904;52.246;20.898;2022-08-19T11:48:34;17.90;;;7.70;;
19519;SDS011;9904;52.246;20.898;2022-08-19T11:51:05;12.77;;;7.28;;
19519;SDS011;9904;52.246;20.898;2022-08-19T11:53:35;18.25;;;7.28;;
19519;SDS011;9904;52.246;20.898;2022-08-19T11:56:02;12.73;;;7.55;;
19519;SDS011;9904;52.246;20.898;2022-08-19T11:58:30;16.42;;;7.07;;
19519;SDS011;9904;52.246;20.898;2022-08-19T12:00:57;18.10;;;6.65;;
19519;SDS011;9904;52.246;20.898;2022-08-19T12:03:23;17.17;;;7.15;;
19519;SDS011;9904;52.246;20.898;2022-08-19T12:05:50;18.47;;;7.50;;
19519;SDS011;9904;52.246;20.898;2022-08-19T12:08:17;11.73;;;7.00;;
19519;SDS011;9904;52.246;20.898;2022-08-19T12:10:44;18.60;;;6.65;;
19519;SDS011;9904;52.246;20.898;2022-08-19T12:13:12;19.30;;;6.97;;
19519;SDS011;9904;52.246;20.898;2022-08-19T12:15:45;15.57;;;6.57;;
19519;SDS011;9904;52.246;20.898;2022-08-19T12:18:12;15.05;;;7.13;;
19519;SDS011;9904;52.246;20.898;2022-08-19T12:20:42;13.07;;;7.25;;
19519;SDS011;9904;52.246;20.898;2022-08-19T12:23:09;14.98;;;7.32;;
19519;SDS011;9904;52.246;20.898;2022-08-19T12:25:37;10.80;;;7.05;;
19519;SDS011;9904;52.246;20.898;2022-08-19T12:28:09;12.18;;;6.72;;
19519;SDS011;9904;52.246;20.898;2022-08-19T12:30:37;11.13;;;6.78;;
19519;SDS011;9904;52.246;20.898;2022-08-19T12:33:04;21.73;;;6.90;;
19519;SDS011;9904;52.246;20.898;2022-08-19T12:35:30;10.95;;;6.35;;
19519;SDS011;9904;52.246;20.898;2022-08-19T12:37:57;15.80;;;6.43;;
19519;SDS011;9904;52.246;20.898;2022-08-19T12:40:26;20.55;;;6.43;;
19519;SDS011;9904;52.246;20.898;2022-08-19T12:42:53;13.30;;;6.82;;
19519;SDS011;9904;52.246;20.898;2022-08-19T12:45:20;13.10;;;6.40;;
19519;SDS011;9904;52.246;20.898;2022-08-19T12:47:47;12.55;;;6.78;;
19519;SDS011;9904;52.246;20.898;2022-08-19T12:50:20;13.25;;;6.25;;
19519;SDS011;9904;52.246;20.898;2022-08-19T12:52:47;23.83;;;6.68;;
19519;SDS011;9904;52.246;20.898;2022-08-19T12:55:14;22.35;;;7.28;;
19519;SDS011;9904;52.246;20.898;2022-08-19T12:57:41;29.25;;;6.85;;
19519;SDS011;9904;52.246;20.898;2022-08-19T13:00:11;13.85;;;6.53;;
19519;SDS011;9904;52.246;20.898;2022-08-19T13:02:45;15.18;;;6.05;;
19519;SDS011;9904;52.246;20.898;2022-08-19T13:05:13;13.77;;;7.20;;
19519;SDS011;9904;52.246;20.898;2022-08-19T13:07:42;18.90;;;6.60;;
19519;SDS011;9904;52.246;20.898;2022-08-19T13:10:11;13.55;;;6.50;;
19519;SDS011;9904;52.246;20.898;2022-08-19T13:12:38;14.13;;;6.78;;
19519;SDS011;9904;52.246;20.898;2022-08-19T13:15:07;14.93;;;6.05;;
19519;SDS011;9904;52.246;20.898;2022-08-19T13:17:36;14.05;;;6.22;;
19519;SDS011;9904;52.246;20.898;2022-08-19T13:20:03;16.17;;;6.88;;
19519;SDS011;9904;52.246;20.898;2022-08-19T13:22:32;16.27;;;6.38;;
19519;SDS011;9904;52.246;20.898;2022-08-19T13:24:58;14.80;;;6.38;;
19519;SDS011;9904;52.246;20.898;2022-08-19T13:27:25;19.15;;;6.65;;
19519;SDS011;9904;52.246;20.898;2022-08-19T13:29:51;18.42;;;6.07;;
19519;SDS011;9904;52.246;20.898;2022-08-19T13:32:36;14.80;;;5.80;;
19519;SDS011;9904;52.246;20.898;2022-08-19T13:35:22;17.92;;;5.65;;
19519;SDS011;9904;52.246;20.898;2022-08-19T13:37:49;12.95;;;6.00;;
19519;SDS011;9904;52.246;20.898;2022-08-19T13:40:17;13.50;;;6.03;;
19519;SDS011;9904;52.246;20.898;2022-08-19T13:42:49;15.13;;;6.43;;
19519;SDS011;9904;52.246;20.898;2022-08-19T13:45:19;13.93;;;6.05;;
19519;SDS011;9904;52.246;20.898;2022-08-19T13:47:48;16.40;;;6.15;;
19519;SDS011;9904;52.246;20.898;2022-08-19T13:50:19;13.75;;;6.07;;
19519;SDS011;9904;52.246;20.898;2022-08-19T13:52:48;13.00;;;6.53;;
19519;SDS011;9904;52.246;20.898;2022-08-19T13:55:15;18.27;;;6.07;;
19519;SDS011;9904;52.246;20.898;2022-08-19T13:57:50;15.27;;;5.82;;
19519;SDS011;9904;52.246;20.898;2022-08-19T14:00:19;16.67;;;5.72;;
19519;SDS011;9904;52.246;20.898;2022-08-19T14:02:50;18.00;;;6.40;;
19519;SDS011;9904;52.246;20.898;2022-08-19T14:05:17;21.83;;;6.72;;
19519;SDS011;9904;52.246;20.898;2022-08-19T14:07:44;13.23;;;5.68;;
19519;SDS011;9904;52.246;20.898;2022-08-19T14:10:12;9.32;;;5.15;;
19519;SDS011;9904;52.246;20.898;2022-08-19T14:12:39;17.80;;;6.50;;
19519;SDS011;9904;52.246;20.898;2022-08-19T14:15:06;15.40;;;5.88;;
19519;SDS011;9904;52.246;20.898;2022-08-19T14:17:34;18.58;;;6.25;;
19519;SDS011;9904;52.246;20.898;2022-08-19T14:20:05;16.13;;;6.30;;
19519;SDS011;9904;52.246;20.898;2022-08-19T14:22:36;20.48;;;6.72;;
19519;SDS011;9904;52.246;20.898;2022-08-19T14:25:05;11.75;;;6.05;;
19519;SDS011;9904;52.246;20.898;2022-08-19T14:27:34;11.88;;;5.50;;
19519;SDS011;9904;52.246;20.898;2022-08-19T14:30:02;12.90;;;5.90;;
19519;SDS011;9904;52.246;20.898;2022-08-19T14:32:30;17.83;;;5.65;;
19519;SDS011;9904;52.246;20.898;2022-08-19T14:34:57;10.95;;;5.80;;
19519;SDS011;9904;52.246;20.898;2022-08-19T14:37:23;13.82;;;5.50;;
19519;SDS011;9904;52.246;20.898;2022-08-19T14:39:50;13.38;;;6.13;;
19519;SDS011;9904;52.246;20.898;2022-08-19T14:42:16;20.02;;;5.97;;
19519;SDS011;9904;52.246;20.898;2022-08-19T14:44:43;12.50;;;5.68;;
19519;SDS011;9904;52.246;20.898;2022-08-19T14:47:10;11.43;;;5.90;;
19519;SDS011;9904;52.246;20.898;2022-08-19T14:49:37;14.68;;;5.55;;
19519;SDS011;9904;52.246;20.898;2022-08-19T14:52:09;13.10;;;5.32;;
19519;SDS011;9904;52.246;20.898;2022-08-19T14:54:36;13.57;;;5.35;;